createdAt,value
2023-01-30T00:01:46.517Z,4.90
2023-01-30T00:04:17.146Z,4.70
2023-01-30T00:06:45.526Z,4.50
2023-01-30T00:09:17.353Z,4.40
2023-01-30T00:11:45.528Z,4.60
2023-01-30T00:14:13.737Z,4.10
2023-01-30T00:16:42.974Z,4.40
2023-01-30T00:19:11.110Z,5.10
2023-01-30T00:21:39.215Z,4.70
2023-01-30T00:24:07.775Z,5.10
2023-01-30T00:26:35.990Z,5.00
2023-01-30T00:29:04.130Z,4.70
2023-01-30T00:31:32.343Z,4.70
2023-01-30T00:34:00.467Z,4.40
2023-01-30T00:36:28.500Z,4.80
2023-01-30T00:38:58.388Z,4.20
2023-01-30T00:41:46.498Z,4.10
2023-01-30T00:44:33.162Z,4.10
2023-01-30T00:47:08.921Z,4.40
2023-01-30T00:49:38.225Z,4.50
2023-01-30T00:52:06.541Z,4.80
2023-01-30T00:54:35.029Z,4.00
2023-01-30T00:57:03.205Z,4.80
2023-01-30T00:59:31.497Z,4.30
2023-01-30T01:01:59.615Z,4.50
2023-01-30T01:04:27.903Z,4.40
2023-01-30T01:06:56.087Z,5.20
2023-01-30T01:09:24.221Z,4.60
2023-01-30T01:11:52.407Z,4.60
2023-01-30T01:14:20.466Z,4.40
2023-01-30T01:16:48.762Z,4.30
2023-01-30T01:19:16.866Z,5.30
2023-01-30T01:21:45.033Z,4.40
2023-01-30T01:24:14.859Z,4.60
2023-01-30T01:26:43.786Z,4.10
2023-01-30T01:29:13.764Z,4.70
2023-01-30T01:31:43.675Z,4.20
2023-01-30T01:34:12.487Z,4.10
2023-01-30T01:36:55.843Z,4.50
2023-01-30T01:39:24.027Z,4.80
2023-01-30T01:41:52.537Z,4.20
2023-01-30T01:44:20.657Z,4.00
2023-01-30T01:46:56.542Z,4.30
2023-01-30T01:49:37.047Z,4.10
2023-01-30T01:52:11.738Z,4.10
2023-01-30T01:54:45.084Z,4.40
2023-01-30T01:57:20.070Z,4.00
2023-01-30T02:00:05.885Z,4.10
2023-01-30T02:02:34.860Z,4.60
2023-01-30T02:05:03.920Z,4.90
2023-01-30T02:07:59.517Z,4.40
2023-01-30T02:10:51.854Z,4.40
2023-01-30T02:13:20.676Z,3.80
2023-01-30T02:15:49.724Z,4.00
2023-01-30T02:18:18.924Z,4.30
2023-01-30T02:21:31.778Z,4.70
2023-01-30T02:24:08.343Z,4.50
2023-01-30T02:27:05.000Z,3.90
2023-01-30T02:29:46.802Z,4.20
2023-01-30T02:32:26.642Z,5.40
2023-01-30T02:35:08.446Z,4.30
2023-01-30T02:37:51.537Z,4.10
2023-01-30T02:40:40.508Z,3.90
2023-01-30T02:43:23.711Z,4.50
2023-01-30T02:46:02.978Z,4.80
2023-01-30T02:48:40.070Z,4.70
2023-01-30T02:51:23.222Z,4.40
2023-01-30T02:53:51.572Z,4.60
2023-01-30T02:56:19.767Z,5.20
2023-01-30T02:59:06.251Z,4.30
2023-01-30T03:02:09.562Z,4.60
2023-01-30T03:04:58.693Z,4.70
2023-01-30T03:07:50.779Z,4.10
2023-01-30T03:10:24.788Z,5.00
2023-01-30T03:13:05.253Z,3.90
2023-01-30T03:15:44.935Z,4.80
2023-01-30T03:18:13.259Z,4.30
2023-01-30T03:20:41.728Z,3.80
2023-01-30T03:23:10.215Z,4.30
2023-01-30T03:25:41.579Z,4.50
2023-01-30T03:28:11.109Z,4.40
2023-01-30T03:30:39.401Z,4.80
2023-01-30T03:33:07.592Z,4.00
2023-01-30T03:35:36.155Z,4.80
2023-01-30T03:38:04.705Z,4.60
2023-01-30T03:40:33.186Z,4.40
2023-01-30T03:43:01.261Z,4.30
2023-01-30T03:45:29.309Z,4.00
2023-01-30T03:47:57.336Z,4.40
2023-01-30T03:50:25.459Z,4.30
2023-01-30T03:52:54.278Z,3.70
2023-01-30T03:55:22.331Z,4.20
2023-01-30T03:57:55.627Z,5.00
2023-01-30T04:00:23.999Z,3.80
2023-01-30T04:02:52.186Z,4.60
2023-01-30T04:05:20.641Z,5.20
2023-01-30T04:07:48.930Z,4.70
2023-01-30T04:10:20.046Z,4.60
2023-01-30T04:12:48.327Z,4.40
2023-01-30T04:15:16.844Z,4.10
2023-01-30T04:17:45.159Z,4.90
2023-01-30T04:20:13.286Z,5.10
2023-01-30T04:22:41.397Z,4.70
2023-01-30T04:25:09.733Z,4.70
2023-01-30T04:27:37.928Z,4.60
2023-01-30T04:30:06.599Z,4.80
2023-01-30T04:32:34.750Z,4.10
2023-01-30T04:35:02.945Z,4.80
2023-01-30T04:37:31.948Z,5.00
2023-01-30T04:40:00.046Z,4.70
2023-01-30T04:42:28.199Z,4.40
2023-01-30T04:44:56.236Z,4.60
2023-01-30T04:47:24.393Z,4.40
2023-01-30T04:49:52.491Z,4.70
2023-01-30T04:52:20.655Z,4.30
2023-01-30T04:54:48.733Z,5.20
2023-01-30T04:57:16.916Z,4.90
2023-01-30T04:59:45.020Z,4.80
2023-01-30T05:02:13.311Z,4.90
2023-01-30T05:04:41.744Z,4.70
2023-01-30T05:07:10.092Z,4.90
2023-01-30T05:09:38.107Z,4.40
2023-01-30T05:12:06.349Z,4.10
2023-01-30T05:14:35.638Z,4.30
2023-01-30T05:17:03.738Z,4.10
2023-01-30T05:19:31.776Z,4.50
2023-01-30T05:21:59.881Z,3.90
2023-01-30T05:24:27.933Z,4.50
2023-01-30T05:26:55.998Z,4.00
2023-01-30T05:29:24.064Z,4.20
2023-01-30T05:31:52.167Z,4.40
2023-01-30T05:34:20.361Z,4.60
2023-01-30T05:36:48.773Z,5.00
2023-01-30T05:39:16.939Z,4.00
2023-01-30T05:41:45.110Z,4.60
2023-01-30T05:44:13.154Z,5.20
2023-01-30T05:46:41.307Z,5.10
2023-01-30T05:49:09.431Z,4.70
2023-01-30T05:51:37.503Z,5.40
2023-01-30T05:54:05.657Z,5.30
2023-01-30T05:56:33.686Z,5.60
2023-01-30T05:59:02.126Z,5.30
2023-01-30T06:01:30.780Z,5.60
2023-01-30T06:03:59.207Z,5.60
2023-01-30T06:06:27.391Z,5.50
2023-01-30T06:08:56.602Z,5.30
2023-01-30T06:11:24.844Z,5.70
2023-01-30T06:13:52.942Z,5.30
2023-01-30T06:16:21.420Z,6.00
2023-01-30T06:18:49.553Z,5.70
2023-01-30T06:21:17.801Z,5.50
2023-01-30T06:23:46.601Z,5.60
2023-01-30T06:26:14.871Z,5.10
2023-01-30T06:28:43.196Z,5.60
2023-01-30T06:31:11.772Z,4.90
2023-01-30T06:33:39.909Z,4.70
2023-01-30T06:36:08.381Z,4.80
2023-01-30T06:38:36.607Z,5.20
2023-01-30T06:41:04.803Z,5.20
2023-01-30T06:43:32.908Z,4.80
2023-01-30T06:46:01.141Z,4.60
2023-01-30T06:48:29.301Z,4.90
2023-01-30T06:50:57.412Z,4.00
2023-01-30T06:53:30.435Z,4.50
2023-01-30T06:55:59.631Z,5.00
2023-01-30T06:58:28.336Z,4.40
2023-01-30T07:00:56.518Z,4.40
2023-01-30T07:03:24.660Z,4.50
2023-01-30T07:05:52.871Z,4.30
2023-01-30T07:08:23.243Z,4.50
2023-01-30T07:10:52.296Z,4.40
2023-01-30T07:13:20.723Z,4.10
2023-01-30T07:15:48.867Z,4.20
2023-01-30T07:18:17.071Z,4.30
2023-01-30T07:20:49.808Z,5.10
2023-01-30T07:23:18.257Z,4.30
2023-01-30T07:25:46.427Z,4.60
2023-01-30T07:28:14.500Z,4.80
2023-01-30T07:30:43.011Z,4.30
2023-01-30T07:33:11.254Z,4.80
2023-01-30T07:35:39.410Z,4.60
2023-01-30T07:38:07.700Z,4.50
2023-01-30T07:40:35.908Z,4.00
2023-01-30T07:43:06.454Z,4.10
2023-01-30T07:45:46.362Z,3.90
2023-01-30T07:48:17.114Z,4.00
2023-01-30T07:50:45.985Z,4.30
2023-01-30T07:53:18.625Z,3.70
2023-01-30T07:55:46.701Z,4.40
2023-01-30T07:58:16.125Z,4.10
2023-01-30T08:00:44.438Z,4.20
2023-01-30T08:03:17.327Z,4.80
2023-01-30T08:05:48.587Z,4.80
2023-01-30T08:08:16.980Z,4.10
2023-01-30T08:10:45.366Z,4.30
2023-01-30T08:13:13.469Z,4.10
2023-01-30T08:15:41.706Z,4.00
2023-01-30T08:18:09.772Z,4.40
2023-01-30T08:20:37.905Z,4.40
2023-01-30T08:23:06.347Z,4.70
2023-01-30T08:25:35.719Z,4.10
2023-01-30T08:28:04.647Z,4.90
2023-01-30T08:30:32.868Z,4.90
2023-01-30T08:33:00.890Z,5.10
2023-01-30T08:35:29.018Z,4.70
2023-01-30T08:37:57.088Z,4.10
2023-01-30T08:40:25.245Z,4.30
2023-01-30T08:42:53.289Z,3.80
2023-01-30T08:45:21.351Z,4.10
2023-01-30T08:47:49.437Z,4.20
2023-01-30T08:50:17.902Z,4.50
2023-01-30T08:52:46.098Z,4.30
2023-01-30T08:55:14.347Z,4.10
2023-01-30T08:57:42.495Z,4.00
2023-01-30T09:00:11.768Z,4.20
2023-01-30T09:02:40.935Z,4.00
2023-01-30T09:05:11.202Z,4.20
2023-01-30T09:07:39.464Z,4.30
2023-01-30T09:10:08.072Z,3.90
2023-01-30T09:12:36.280Z,4.10
2023-01-30T09:15:04.887Z,3.30
2023-01-30T09:17:32.978Z,4.40
2023-01-30T09:20:01.242Z,3.70
2023-01-30T09:22:29.317Z,3.80
2023-01-30T09:24:59.144Z,3.60
2023-01-30T09:27:27.243Z,4.00
2023-01-30T09:29:55.315Z,3.70
2023-01-30T09:32:23.754Z,4.00
2023-01-30T09:34:51.894Z,4.00
2023-01-30T09:37:19.976Z,4.60
2023-01-30T09:39:48.120Z,3.80
2023-01-30T09:42:36.519Z,4.00
2023-01-30T09:45:17.653Z,2.70
2023-01-30T09:47:52.567Z,3.00
2023-01-30T09:50:53.433Z,3.50
2023-01-30T09:53:40.768Z,3.90
2023-01-30T09:56:08.889Z,3.80
2023-01-30T09:58:58.531Z,3.80
2023-01-30T10:01:51.106Z,3.40
2023-01-30T10:04:27.533Z,3.80
2023-01-30T10:07:10.512Z,3.20
2023-01-30T10:09:55.502Z,3.60
2023-01-30T10:12:51.383Z,3.60
2023-01-30T10:15:30.097Z,4.10
2023-01-30T10:18:39.555Z,3.30
2023-01-30T10:21:30.511Z,4.10
2023-01-30T10:24:04.766Z,4.00
2023-01-30T10:26:33.869Z,3.80
2023-01-30T10:29:17.094Z,3.80
2023-01-30T10:31:51.151Z,4.40
2023-01-30T10:34:24.716Z,4.20
2023-01-30T10:37:10.002Z,4.50
2023-01-30T10:39:55.406Z,4.70
2023-01-30T10:42:34.771Z,3.80
2023-01-30T10:45:13.478Z,4.40
2023-01-30T10:47:56.434Z,4.50
2023-01-30T10:50:45.688Z,3.60
2023-01-30T10:53:33.148Z,4.40
2023-01-30T10:56:05.293Z,4.40
2023-01-30T10:59:00.695Z,4.60
2023-01-30T11:02:09.765Z,4.20
2023-01-30T11:04:48.683Z,4.30
2023-01-30T11:07:17.006Z,4.50
2023-01-30T11:09:47.405Z,4.90
2023-01-30T11:12:15.932Z,4.30
2023-01-30T11:14:58.832Z,4.60
2023-01-30T11:17:32.639Z,4.90
2023-01-30T11:20:24.401Z,4.10
2023-01-30T11:23:05.565Z,4.80
2023-01-30T11:25:49.230Z,5.20
2023-01-30T11:28:19.697Z,5.20
2023-01-30T11:30:54.860Z,5.10
2023-01-30T11:33:24.968Z,5.00
2023-01-30T11:35:57.674Z,4.60
2023-01-30T11:38:32.273Z,5.00
2023-01-30T11:41:20.559Z,5.10
2023-01-30T11:43:48.736Z,4.90
2023-01-30T11:46:20.021Z,5.00
2023-01-30T11:49:03.127Z,5.40
2023-01-30T11:51:47.241Z,4.80
2023-01-30T11:54:20.146Z,4.20
2023-01-30T11:56:57.235Z,5.40
2023-01-30T11:59:30.777Z,4.30
2023-01-30T12:05:45.212Z,4.70
2023-01-30T12:08:39.462Z,4.70
2023-01-30T12:11:42.688Z,5.10
2023-01-30T12:14:32.662Z,5.80
2023-01-30T12:17:26.752Z,5.70
2023-01-30T12:20:06.306Z,5.50
2023-01-30T12:22:43.802Z,5.70
2023-01-30T12:25:27.019Z,5.50
2023-01-30T12:28:03.096Z,5.10
2023-01-30T12:30:41.077Z,5.40
2023-01-30T12:33:15.818Z,5.80
2023-01-30T12:35:44.500Z,5.50
2023-01-30T12:38:43.604Z,5.10
2023-01-30T12:41:29.180Z,4.70
2023-01-30T12:44:03.548Z,4.90
2023-01-30T12:46:41.398Z,5.60
2023-01-30T12:49:39.062Z,4.50
2023-01-30T12:52:30.714Z,5.20
2023-01-30T12:55:10.437Z,5.70
2023-01-30T12:57:53.799Z,6.00
2023-01-30T13:00:30.333Z,6.90
2023-01-30T13:03:22.265Z,6.50
2023-01-30T13:05:57.589Z,6.50
2023-01-30T13:09:03.578Z,6.30
2023-01-30T13:12:16.492Z,6.50
2023-01-30T13:15:03.627Z,6.00
2023-01-30T13:17:37.683Z,5.80
2023-01-30T13:20:17.071Z,7.10
2023-01-30T13:23:00.598Z,6.80
2023-01-30T13:26:03.278Z,6.20
2023-01-30T13:28:45.274Z,6.90
2023-01-30T13:31:18.938Z,6.30
2023-01-30T13:33:51.061Z,5.80
2023-01-30T13:36:27.620Z,7.40
2023-01-30T13:39:09.526Z,7.50
2023-01-30T13:41:42.788Z,7.20
2023-01-30T13:44:33.821Z,6.70
2023-01-30T13:47:15.312Z,6.40
2023-01-30T13:49:53.005Z,7.20
2023-01-30T13:52:36.146Z,7.10
2023-01-30T13:55:14.956Z,7.60
2023-01-30T13:57:50.925Z,7.20
2023-01-30T14:00:34.094Z,7.30
2023-01-30T14:03:08.758Z,6.60
2023-01-30T14:06:25.779Z,6.70
2023-01-30T14:08:59.509Z,6.50
2023-01-30T14:12:01.064Z,6.10
2023-01-30T14:14:40.889Z,6.20
2023-01-30T14:17:16.038Z,8.00
2023-01-30T14:20:07.242Z,6.30
2023-01-30T14:22:47.908Z,6.90
2023-01-30T14:25:28.612Z,8.00
2023-01-30T14:27:59.957Z,7.70
2023-01-30T14:30:31.804Z,7.80
2023-01-30T14:33:02.327Z,7.80
2023-01-30T14:35:33.707Z,8.30
2023-01-30T14:38:14.670Z,7.70
2023-01-30T14:41:26.261Z,7.00
2023-01-30T14:43:54.783Z,6.60
2023-01-30T14:46:23.345Z,6.80
2023-01-30T14:49:01.305Z,7.80
2023-01-30T14:51:50.057Z,6.80
2023-01-30T14:54:18.131Z,6.20
2023-01-30T14:57:01.984Z,7.40
2023-01-30T14:59:33.462Z,6.30
2023-01-30T15:02:06.889Z,7.10
2023-01-30T15:04:51.892Z,6.90
2023-01-30T15:07:38.805Z,7.20
2023-01-30T15:10:14.163Z,6.30
2023-01-30T15:12:48.155Z,7.90
2023-01-30T15:15:54.939Z,7.80
2023-01-30T15:19:04.172Z,6.30
2023-01-30T15:22:01.738Z,7.30
2023-01-30T15:24:32.842Z,6.80
2023-01-30T15:27:04.242Z,7.20
2023-01-30T15:30:06.622Z,8.00
2023-01-30T15:32:35.025Z,6.90
2023-01-30T15:35:21.713Z,7.00
2023-01-30T15:37:51.411Z,7.80
2023-01-30T15:40:24.091Z,6.50
2023-01-30T15:43:01.482Z,7.40
2023-01-30T15:46:05.342Z,7.40
2023-01-30T15:48:55.173Z,7.00
2023-01-30T15:51:27.954Z,6.70
2023-01-30T15:53:58.399Z,7.10
2023-01-30T15:56:29.525Z,6.80
2023-01-30T15:59:02.717Z,7.20
2023-01-30T16:01:31.648Z,6.60
2023-01-30T16:04:00.713Z,8.20
2023-01-30T16:06:29.099Z,7.10
2023-01-30T16:09:04.031Z,6.60
2023-01-30T16:11:34.519Z,7.70
2023-01-30T16:14:02.729Z,7.30
2023-01-30T16:16:34.971Z,8.20
2023-01-30T16:19:06.970Z,8.80
2023-01-30T16:21:43.350Z,7.80
2023-01-30T16:24:22.758Z,7.80
2023-01-30T16:27:00.755Z,8.00
2023-01-30T16:29:33.568Z,8.00
2023-01-30T16:32:02.205Z,8.70
2023-01-30T16:34:32.459Z,8.30
2023-01-30T16:37:19.168Z,10.40
2023-01-30T16:40:09.358Z,8.80
2023-01-30T16:42:38.142Z,7.50
2023-01-30T16:45:19.745Z,8.10
2023-01-30T16:47:48.318Z,8.40
2023-01-30T16:50:23.345Z,7.50
2023-01-30T16:52:53.669Z,8.80
2023-01-30T16:55:24.951Z,8.90
2023-01-30T16:58:02.961Z,8.20
2023-01-30T17:00:33.763Z,9.30
2023-01-30T17:05:59.246Z,9.60
2023-01-30T17:08:46.128Z,8.80
2023-01-30T17:11:40.252Z,10.60
2023-01-30T17:14:24.551Z,8.80
2023-01-30T17:17:04.045Z,8.80
2023-01-30T17:19:32.776Z,8.70
2023-01-30T17:22:05.557Z,10.00
2023-01-30T17:24:36.389Z,10.00
2023-01-30T17:27:05.079Z,9.80
2023-01-30T17:29:42.385Z,10.50
2023-01-30T17:32:13.793Z,8.70
2023-01-30T17:34:42.101Z,9.40
2023-01-30T17:37:16.072Z,8.10
2023-01-30T17:39:44.903Z,9.00
2023-01-30T17:42:14.578Z,8.40
2023-01-30T17:44:42.993Z,8.70
2023-01-30T17:47:12.150Z,9.10
2023-01-30T17:49:40.695Z,8.50
2023-01-30T17:52:09.560Z,8.00
2023-01-30T17:54:37.839Z,8.70
2023-01-30T17:57:09.952Z,8.70
2023-01-30T17:59:38.172Z,8.80
2023-01-30T18:02:07.197Z,8.00
2023-01-30T18:04:35.363Z,8.90
2023-01-30T18:07:06.625Z,7.70
2023-01-30T18:09:34.864Z,8.60
2023-01-30T18:12:03.449Z,9.50
2023-01-30T18:14:32.253Z,10.70
2023-01-30T18:17:01.881Z,9.30
2023-01-30T18:19:31.919Z,10.70
2023-01-30T18:22:00.454Z,10.10
2023-01-30T18:24:28.866Z,8.50
2023-01-30T18:27:01.496Z,10.10
2023-01-30T18:29:31.011Z,10.70
2023-01-30T18:32:05.247Z,9.80
2023-01-30T18:34:33.819Z,9.30
2023-01-30T18:37:02.301Z,9.20
2023-01-30T18:39:32.241Z,11.80
2023-01-30T18:42:02.363Z,10.10
2023-01-30T18:44:30.723Z,10.40
2023-01-30T18:46:59.083Z,9.90
2023-01-30T18:49:27.461Z,10.90
2023-01-30T18:51:55.748Z,11.80
2023-01-30T18:54:24.030Z,10.40
2023-01-30T18:56:52.398Z,9.50
2023-01-30T18:59:20.796Z,10.00
2023-01-30T19:01:49.769Z,9.20
2023-01-30T19:04:18.778Z,9.40
2023-01-30T19:06:47.138Z,8.80
2023-01-30T19:09:18.400Z,8.50
2023-01-30T19:12:05.206Z,7.50
2023-01-30T19:14:33.481Z,7.90
2023-01-30T19:17:01.860Z,7.90
2023-01-30T19:19:30.131Z,8.20
2023-01-30T19:21:58.427Z,7.30
2023-01-30T19:24:27.198Z,6.30
2023-01-30T19:26:55.447Z,7.50
2023-01-30T19:29:23.954Z,7.80
2023-01-30T19:31:52.524Z,7.50
2023-01-30T19:34:20.922Z,7.50
2023-01-30T19:36:49.408Z,7.20
2023-01-30T19:39:17.983Z,7.10
2023-01-30T19:41:46.160Z,7.10
2023-01-30T19:44:14.746Z,7.60
2023-01-30T19:46:43.464Z,7.40
2023-01-30T19:49:12.419Z,8.10
2023-01-30T19:51:42.133Z,7.20
2023-01-30T19:54:12.330Z,7.30
2023-01-30T19:56:42.797Z,8.20
2023-01-30T19:59:13.136Z,7.70
2023-01-30T20:01:41.744Z,7.90
2023-01-30T20:04:10.080Z,7.60
2023-01-30T20:06:43.546Z,6.40
2023-01-30T20:09:11.875Z,7.40
2023-01-30T20:11:42.043Z,7.60
2023-01-30T20:14:11.376Z,7.70
2023-01-30T20:16:40.385Z,7.30
2023-01-30T20:19:14.477Z,7.90
2023-01-30T20:21:43.883Z,8.40
2023-01-30T20:24:14.006Z,8.30
2023-01-30T20:26:43.152Z,7.20
2023-01-30T20:29:12.390Z,8.70
2023-01-30T20:31:41.329Z,7.00
2023-01-30T20:34:13.250Z,7.30
2023-01-30T20:36:41.632Z,7.60
2023-01-30T20:39:10.217Z,7.00
2023-01-30T20:41:38.916Z,6.30
2023-01-30T20:44:09.125Z,6.40
2023-01-30T20:46:41.787Z,8.50
2023-01-30T20:49:18.992Z,7.10
2023-01-30T20:51:50.489Z,6.80
2023-01-30T20:54:20.944Z,7.40
2023-01-30T20:56:52.502Z,8.00
2023-01-30T20:59:27.532Z,8.00
2023-01-30T21:01:55.941Z,8.60
2023-01-30T21:04:24.875Z,8.80
2023-01-30T21:06:53.418Z,7.00
2023-01-30T21:09:23.535Z,7.40
2023-01-30T21:11:53.476Z,8.50
2023-01-30T21:14:22.697Z,7.90
2023-01-30T21:16:51.602Z,8.30
2023-01-30T21:19:20.139Z,7.70
2023-01-30T21:21:53.955Z,8.70
2023-01-30T21:24:28.736Z,8.60
2023-01-30T21:26:57.784Z,8.80
2023-01-30T21:29:27.970Z,8.20
2023-01-30T21:31:57.676Z,8.40
2023-01-30T21:34:25.965Z,7.60
2023-01-30T21:37:13.181Z,8.30
2023-01-30T21:40:00.404Z,8.10
2023-01-30T21:42:47.827Z,7.30
2023-01-30T21:45:16.442Z,8.00
2023-01-30T21:47:44.896Z,8.50
2023-01-30T21:50:13.274Z,8.80
2023-01-30T21:52:41.563Z,8.80
2023-01-30T21:55:10.044Z,9.70
2023-01-30T21:57:38.985Z,9.00
2023-01-30T22:00:08.541Z,9.90
2023-01-30T22:02:36.910Z,8.70
2023-01-30T22:05:06.105Z,9.40
2023-01-30T22:07:34.391Z,9.30
2023-01-30T22:10:02.996Z,9.20
2023-01-30T22:12:32.577Z,8.50
2023-01-30T22:15:00.960Z,9.20
2023-01-30T22:17:29.545Z,7.50
2023-01-30T22:19:58.137Z,8.80
2023-01-30T22:22:26.541Z,9.00
2023-01-30T22:24:54.858Z,8.80
2023-01-30T22:27:23.269Z,7.80
2023-01-30T22:29:51.718Z,8.30
2023-01-30T22:32:20.228Z,9.30
2023-01-30T22:34:48.604Z,8.00
2023-01-30T22:37:16.914Z,10.20
2023-01-30T22:39:45.366Z,8.60
2023-01-30T22:42:14.045Z,10.60
2023-01-30T22:44:42.355Z,9.50
2023-01-30T22:47:10.583Z,8.80
2023-01-30T22:49:39.606Z,9.40
2023-01-30T22:52:07.976Z,7.90
2023-01-30T22:54:36.252Z,8.30
2023-01-30T22:57:04.632Z,7.80
2023-01-30T22:59:32.937Z,7.40
2023-01-30T23:02:01.471Z,8.60
2023-01-30T23:04:29.871Z,9.10
2023-01-30T23:06:59.801Z,10.30
2023-01-30T23:09:28.174Z,8.20
2023-01-30T23:12:17.136Z,9.90
2023-01-30T23:14:46.231Z,9.00
2023-01-30T23:17:33.249Z,9.10
2023-01-30T23:20:01.627Z,9.10
2023-01-30T23:22:29.891Z,10.10
2023-01-30T23:24:58.254Z,10.00
2023-01-30T23:27:27.600Z,10.20
2023-01-30T23:29:56.052Z,9.80
2023-01-30T23:32:25.150Z,9.90
2023-01-30T23:34:53.432Z,9.50
2023-01-30T23:37:44.749Z,7.90
2023-01-30T23:42:41.100Z,9.00
2023-01-30T23:45:10.000Z,8.90
2023-01-30T23:47:38.789Z,7.50
2023-01-30T23:50:07.700Z,8.60
2023-01-30T23:52:36.318Z,8.20
2023-01-30T23:55:05.865Z,8.30
2023-01-30T23:57:34.027Z,9.20
